Portada
METAR-TAF:

METAR-TAF

Aeroports :

Cabo San Lucas, Mèxic

latitud: 22-56-51N, longitud: 109-56-13W, altitud: 210 m

Observació

L'informe es va fer fa 5 hores i 35 minuts, a les 02:40 UTC
Vent 4 kt del Oest
Temperatura 25°C
Humitat 34%
Pressió 1012 hPa
Visibilitat: 16.1 km
Cel clar

METAR: MMSL 190240Z 26004KT 10SM SKC 25/08 A2987

Hora: 01:15 (08:15 UTC)

Pronòstic

L'informe es va fer fa 3 hores i 32 minuts, a les 04:43 UTC
Pronòstic vàlid del 19 a les 06 UTC al 20 a les 06 UTC
Vent 5 kt del Nord/Nord-Est
Visibilitat: 10 km
Cel clar
A partir de les 19 a les 1800 UTC
Vent 10 kt del Sud/Sud-Oest
Visibilitat: 10 km
Cel clar
Evolucionant progressivament
l' 20 a les 02 UTC al 20 a les 04 UTC
Vent 5 kt del Oest/Sud-Oest

TAF: MMSL 190443Z 1906/2006 02005KT P6SM SKC FM191800 20010KT P6SM SKC BECMG 2002/2004 24005KT

Observacions i pronòstics meteorològics de més de 4000 aeroports (METAR i TAF).

Les estacions disponibles són els punts grocs i vermells al mapa.

Posi el ratolí al punt desitjat per veure el nom de l'estació.

Feu clic per veure les observacions i els pronòstics meteorològics.

Per canviar el mapa: feu clic els botons verds amb una creu de color negre per apropar; al botó verd amb un guió per allunyar la imatge; o en les fletxes verdes per a mapes adjacents.


METAR-TAF: